createdAt,value
2022-09-30T00:00:14.543Z,99518.94
2022-09-30T00:01:16.757Z,99512.88
2022-09-30T00:02:19.062Z,99517.56
2022-09-30T00:03:24.514Z,99522.25
2022-09-30T00:04:26.828Z,99524.19
2022-09-30T00:05:29.011Z,99521.66
2022-09-30T00:06:32.023Z,99525.28
2022-09-30T00:07:34.468Z,99525.28
2022-09-30T00:08:39.992Z,99531.59
2022-09-30T00:09:43.012Z,99530.78
2022-09-30T00:10:45.201Z,99526.94
2022-09-30T00:11:47.641Z,99531.59
2022-09-30T00:12:52.357Z,99544.56
2022-09-30T00:13:55.729Z,99534.34
2022-09-30T00:14:58.097Z,99542.09
2022-09-30T00:16:00.811Z,99535.72
2022-09-30T00:17:03.143Z,99541.50
2022-09-30T00:18:05.333Z,99536.00
2022-09-30T00:19:07.499Z,99535.19
2022-09-30T00:20:10.787Z,99536.28
2022-09-30T00:21:15.787Z,99537.38
2022-09-30T00:22:20.298Z,99534.88
2022-09-30T00:23:23.929Z,99543.16
2022-09-30T00:24:26.191Z,99534.88
2022-09-30T00:25:28.472Z,99540.41
2022-09-30T00:26:31.392Z,99540.41
2022-09-30T00:27:33.603Z,99538.72
2022-09-30T00:28:35.958Z,99540.41
2022-09-30T00:29:38.226Z,99539.59
2022-09-30T00:30:40.709Z,99534.88
2022-09-30T00:31:43.172Z,99530.47
2022-09-30T00:32:45.443Z,99535.97
2022-09-30T00:34:06.934Z,99535.16
2022-09-30T00:35:09.424Z,99543.69
2022-09-30T00:36:14.184Z,99542.84
2022-09-30T00:37:16.954Z,99537.34
2022-09-30T00:38:19.130Z,99545.59
2022-09-30T00:39:24.380Z,99542.84
2022-09-30T00:40:27.463Z,99547.53
2022-09-30T00:41:29.654Z,99543.13
2022-09-30T00:42:31.939Z,99559.94
2022-09-30T00:43:55.816Z,99562.41
2022-09-30T00:45:07.166Z,99556.31
2022-09-30T00:46:40.962Z,99555.78
2022-09-30T00:47:49.112Z,99568.72
2022-09-30T00:48:54.277Z,99568.97
2022-09-30T00:50:01.559Z,99563.47
2022-09-30T00:51:10.423Z,99556.31
2022-09-30T00:52:13.101Z,99565.69
2022-09-30T00:53:23.899Z,99562.94
2022-09-30T00:54:31.218Z,99565.69
2022-09-30T00:55:36.409Z,99562.09
2022-09-30T00:56:42.831Z,99558.78
2022-09-30T00:57:45.428Z,99563.16
2022-09-30T00:58:54.494Z,99559.59
2022-09-30T00:59:57.689Z,99566.19
2022-09-30T01:01:01.928Z,99567.25
2022-09-30T01:02:04.465Z,99570.84
2022-09-30T01:03:09.685Z,99572.75
2022-09-30T01:04:15.769Z,99576.63
2022-09-30T01:05:18.055Z,99574.97
2022-09-30T01:06:23.509Z,99576.63
2022-09-30T01:07:25.885Z,99580.47
2022-09-30T01:08:29.075Z,99584.91
2022-09-30T01:09:46.772Z,99580.47
2022-09-30T01:10:49.050Z,99587.94
2022-09-30T01:11:51.265Z,99579.66
2022-09-30T01:12:53.869Z,99590.09
2022-09-30T01:14:01.857Z,99584.31
2022-09-30T01:15:05.192Z,99581.03
2022-09-30T01:16:45.585Z,99579.09
2022-09-30T01:18:05.790Z,99579.09
2022-09-30T01:19:36.087Z,99581.03
2022-09-30T01:21:07.438Z,99575.75
2022-09-30T01:22:51.971Z,99572.19
2022-09-30T01:24:22.299Z,99578.78
2022-09-30T01:25:31.594Z,99582.38
2022-09-30T01:27:13.527Z,99576.03
2022-09-30T01:28:54.410Z,99573.56
2022-09-30T01:30:15.159Z,99578.25
2022-09-30T01:31:37.217Z,99573.81
2022-09-30T01:33:06.809Z,99568.59
2022-09-30T01:34:37.565Z,99576.00
2022-09-30T01:35:49.021Z,99574.34
2022-09-30T01:37:06.398Z,99571.84
2022-09-30T01:38:26.925Z,99576.56
2022-09-30T01:40:12.377Z,99568.56
2022-09-30T01:41:18.282Z,99568.81
2022-09-30T01:42:38.869Z,99577.91
2022-09-30T01:43:50.283Z,99577.34
2022-09-30T01:45:05.481Z,99578.19
2022-09-30T01:46:34.958Z,99579.28
2022-09-30T01:47:46.782Z,99578.44
2022-09-30T01:49:10.642Z,99586.69
2022-09-30T01:50:24.460Z,99583.13
2022-09-30T01:51:37.943Z,99588.63
2022-09-30T01:52:44.892Z,99590.81
2022-09-30T01:53:55.850Z,99594.66
2022-09-30T01:55:26.815Z,99588.06
2022-09-30T01:56:55.071Z,99592.72
2022-09-30T01:58:05.565Z,99597.41
2022-09-30T01:59:23.363Z,99601.00
2022-09-30T02:00:26.785Z,99603.75
2022-09-30T02:01:43.232Z,99594.66
2022-09-30T02:02:56.791Z,99602.06
2022-09-30T02:04:04.151Z,99604.81
2022-09-30T02:05:11.950Z,99612.28
2022-09-30T02:06:25.419Z,99605.09
2022-09-30T02:07:36.805Z,99604.28
2022-09-30T02:08:57.788Z,99605.09
2022-09-30T02:10:06.986Z,99604.56
2022-09-30T02:11:15.833Z,99606.19
2022-09-30T02:12:22.943Z,99610.88
2022-09-30T02:13:35.763Z,99616.66
2022-09-30T02:14:47.527Z,99610.28
2022-09-30T02:15:58.050Z,99611.41
2022-09-30T02:17:06.183Z,99612.22
2022-09-30T02:18:17.643Z,99612.50
2022-09-30T02:19:30.639Z,99616.06
2022-09-30T02:20:44.468Z,99617.44
2022-09-30T02:21:55.851Z,99608.34
2022-09-30T02:23:07.523Z,99620.19
2022-09-30T02:24:14.897Z,99613.84
2022-09-30T02:25:29.291Z,99622.94
2022-09-30T02:26:37.575Z,99622.94
2022-09-30T02:27:47.791Z,99625.69
2022-09-30T02:28:54.826Z,99621.25
2022-09-30T02:30:07.319Z,99631.47
2022-09-30T02:31:11.709Z,99618.78
2022-09-30T02:32:27.650Z,99627.03
2022-09-30T02:33:44.096Z,99624.28
2022-09-30T02:34:56.461Z,99621.81
2022-09-30T02:36:07.124Z,99618.22
2022-09-30T02:37:15.946Z,99623.16
2022-09-30T02:38:21.676Z,99623.16
2022-09-30T02:39:48.933Z,99623.16
2022-09-30T02:40:58.044Z,99622.34
2022-09-30T02:42:10.518Z,99626.72
2022-09-30T02:43:12.711Z,99622.34
2022-09-30T02:44:19.702Z,99627.00
2022-09-30T02:45:24.124Z,99634.16
2022-09-30T02:46:50.812Z,99636.09
2022-09-30T02:48:34.588Z,99625.34
2022-09-30T02:49:48.161Z,99620.69
2022-09-30T02:51:48.451Z,99625.34
2022-09-30T02:53:28.303Z,99628.09
2022-09-30T02:54:48.495Z,99633.59
2022-09-30T02:56:15.427Z,99633.84
2022-09-30T02:57:20.961Z,99636.59
2022-09-30T02:58:26.379Z,99633.03
2022-09-30T02:59:28.760Z,99639.63
2022-09-30T03:00:31.567Z,99636.31
2022-09-30T03:01:33.921Z,99633.56
2022-09-30T03:02:36.442Z,99631.91
2022-09-30T03:03:47.588Z,99639.91
2022-09-30T03:04:51.841Z,99630.81
2022-09-30T03:05:54.217Z,99631.06
2022-09-30T03:06:56.557Z,99631.91
2022-09-30T03:07:58.869Z,99633.56
2022-09-30T03:09:01.443Z,99629.16
2022-09-30T03:10:18.845Z,99628.31
2022-09-30T03:11:25.165Z,99626.41
2022-09-30T03:12:58.160Z,99633.81
2022-09-30T03:14:19.391Z,99636.56
2022-09-30T03:15:30.515Z,99626.41
2022-09-30T03:16:54.665Z,99631.06
2022-09-30T03:17:59.479Z,99634.66
2022-09-30T03:19:32.364Z,99634.66
2022-09-30T03:20:58.798Z,99639.31
2022-09-30T03:22:04.556Z,99640.16
2022-09-30T03:23:13.246Z,99638.50
2022-09-30T03:24:36.746Z,99644.81
2022-09-30T03:25:44.856Z,99641.25
2022-09-30T03:26:55.800Z,99643.19
2022-09-30T03:28:45.796Z,99647.56
2022-09-30T03:30:02.329Z,99647.84
2022-09-30T03:31:29.325Z,99657.75
2022-09-30T03:32:34.548Z,99650.59
2022-09-30T03:33:46.621Z,99660.50
2022-09-30T03:35:16.275Z,99658.84
2022-09-30T03:36:32.250Z,99658.03
2022-09-30T03:38:02.969Z,99657.19
2022-09-30T03:39:26.938Z,99659.13
2022-09-30T03:40:44.388Z,99657.44
2022-09-30T03:41:49.771Z,99663.78
2022-09-30T03:43:06.466Z,99667.38
2022-09-30T03:44:15.464Z,99668.44
2022-09-30T03:45:26.064Z,99673.13
2022-09-30T03:46:42.597Z,99673.13
2022-09-30T03:47:49.352Z,99669.53
2022-09-30T03:49:14.751Z,99670.66
2022-09-30T03:50:21.905Z,99665.97
2022-09-30T03:51:29.397Z,99667.91
2022-09-30T03:52:33.864Z,99664.31
2022-09-30T03:53:41.387Z,99662.41
2022-09-30T03:54:49.558Z,99661.28
2022-09-30T03:55:53.096Z,99667.06
2022-09-30T03:56:55.266Z,99669.81
2022-09-30T03:57:58.519Z,99667.06
2022-09-30T03:59:01.180Z,99669.81
2022-09-30T04:00:04.810Z,99661.53
2022-09-30T04:01:07.301Z,99663.47
2022-09-30T04:02:13.465Z,99664.31
2022-09-30T04:03:17.093Z,99665.38
2022-09-30T04:04:19.664Z,99670.66
2022-09-30T04:05:21.900Z,99669.81
2022-09-30T04:06:25.423Z,99679.13
2022-09-30T04:07:27.682Z,99670.88
2022-09-30T04:08:33.769Z,99674.50
2022-09-30T04:09:37.912Z,99673.63
2022-09-30T04:10:41.876Z,99679.13
2022-09-30T04:11:44.131Z,99677.50
2022-09-30T04:12:46.319Z,99679.13
2022-09-30T04:13:48.514Z,99675.31
2022-09-30T04:14:50.723Z,99675.31
2022-09-30T04:15:56.085Z,99681.06
2022-09-30T04:16:58.552Z,99677.50
2022-09-30T04:18:01.103Z,99670.06
2022-09-30T04:19:03.949Z,99675.56
2022-09-30T04:20:06.397Z,99678.31
2022-09-30T04:21:10.621Z,99670.88
2022-09-30T04:22:12.829Z,99674.75
2022-09-30T04:23:15.003Z,99673.91
2022-09-30T04:24:17.231Z,99677.75
2022-09-30T04:25:19.427Z,99673.91
2022-09-30T04:26:21.944Z,99674.19
2022-09-30T04:27:24.195Z,99675.00
2022-09-30T04:28:26.822Z,99685.19
2022-09-30T04:29:29.149Z,99685.19
2022-09-30T04:30:33.673Z,99690.94
2022-09-30T04:31:36.118Z,99690.94
2022-09-30T04:32:39.279Z,99691.75
2022-09-30T04:33:41.451Z,99693.69
2022-09-30T04:34:43.669Z,99689.28
2022-09-30T04:35:45.856Z,99689.28
2022-09-30T04:36:48.170Z,99692.28
2022-09-30T04:37:50.829Z,99695.31
2022-09-30T04:38:53.633Z,99690.63
2022-09-30T04:39:55.811Z,99693.38
2022-09-30T04:40:58.766Z,99688.97
2022-09-30T04:42:00.976Z,99696.41
2022-09-30T04:43:03.225Z,99695.00
2022-09-30T04:44:06.490Z,99708.47
2022-09-30T04:45:13.867Z,99699.41
2022-09-30T04:46:18.458Z,99696.94
2022-09-30T04:47:21.690Z,99700.50
2022-09-30T04:48:24.582Z,99698.00
2022-09-30T04:49:26.879Z,99699.91
2022-09-30T04:50:29.062Z,99699.34
2022-09-30T04:51:31.528Z,99711.19
2022-09-30T04:52:34.127Z,99705.94
2022-09-30T04:53:36.318Z,99703.72
2022-09-30T04:54:39.682Z,99700.13
2022-09-30T04:55:43.048Z,99698.47
2022-09-30T04:56:45.349Z,99697.63
2022-09-30T04:57:49.527Z,99705.88
2022-09-30T04:58:53.765Z,99704.22
2022-09-30T04:59:55.977Z,99704.47
2022-09-30T05:01:05.033Z,99706.41
2022-09-30T05:02:09.647Z,99708.31
2022-09-30T05:03:11.948Z,99706.09
2022-09-30T05:04:14.126Z,99706.09
2022-09-30T05:05:16.487Z,99713.50
2022-09-30T05:06:18.881Z,99701.94
2022-09-30T05:07:21.631Z,99711.28
2022-09-30T05:08:23.822Z,99716.78
2022-09-30T05:09:26.114Z,99712.34
2022-09-30T05:10:28.535Z,99716.22
2022-09-30T05:11:30.796Z,99720.06
2022-09-30T05:12:35.232Z,99717.56
2022-09-30T05:13:39.938Z,99720.31
2022-09-30T05:14:42.144Z,99715.63
2022-09-30T05:15:44.315Z,99719.72
2022-09-30T05:16:46.502Z,99729.06
2022-09-30T05:17:52.157Z,99729.06
2022-09-30T05:18:54.555Z,99729.31
2022-09-30T05:19:57.040Z,99724.09
2022-09-30T05:20:59.385Z,99732.34
2022-09-30T05:22:02.507Z,99731.47
2022-09-30T05:23:06.378Z,99727.09
2022-09-30T05:24:09.085Z,99732.00
2022-09-30T05:25:11.553Z,99734.75
2022-09-30T05:26:13.994Z,99736.69
2022-09-30T05:27:16.232Z,99740.50
2022-09-30T05:28:19.055Z,99736.09
2022-09-30T05:29:21.312Z,99733.63
2022-09-30T05:30:23.571Z,99739.94
2022-09-30T05:31:26.956Z,99744.59
2022-09-30T05:32:31.809Z,99741.00
2022-09-30T05:33:35.963Z,99740.19
2022-09-30T05:34:39.153Z,99738.78
2022-09-30T05:35:42.966Z,99746.78
2022-09-30T05:36:45.274Z,99748.97
2022-09-30T05:37:47.446Z,99750.03
2022-09-30T05:38:53.805Z,99756.34
2022-09-30T05:39:56.016Z,99751.97
2022-09-30T05:40:58.352Z,99751.72
2022-09-30T05:42:01.255Z,99754.47
2022-09-30T05:43:03.646Z,99759.09
2022-09-30T05:44:06.414Z,99765.47
2022-09-30T05:45:08.811Z,99760.78
2022-09-30T05:46:11.476Z,99761.59
2022-09-30T05:47:13.763Z,99772.59
2022-09-30T05:48:16.834Z,99762.44
2022-09-30T05:49:19.049Z,99775.09
2022-09-30T05:50:23.674Z,99777.59
2022-09-30T05:51:25.911Z,99774.84
2022-09-30T05:52:28.423Z,99777.34
2022-09-30T05:53:34.834Z,99777.06
2022-09-30T05:54:37.013Z,99778.75
2022-09-30T05:55:39.444Z,99776.81
2022-09-30T05:56:41.657Z,99781.22
2022-09-30T05:57:44.085Z,99770.81
2022-09-30T05:58:47.356Z,99770.56
2022-09-30T05:59:49.558Z,99774.13
2022-09-30T06:00:51.766Z,99776.66
2022-09-30T06:01:54.152Z,99773.63
2022-09-30T06:02:56.480Z,99777.78
2022-09-30T06:03:58.942Z,99775.84
2022-09-30T06:05:01.130Z,99774.78
2022-09-30T06:06:03.425Z,99775.34
2022-09-30T06:07:10.332Z,99777.00
2022-09-30T06:08:14.269Z,99779.50
2022-09-30T06:09:17.131Z,99782.25
2022-09-30T06:10:19.354Z,99780.91
2022-09-30T06:11:25.126Z,99780.66
2022-09-30T06:12:28.895Z,99777.66
2022-09-30T06:13:31.068Z,99774.66
2022-09-30T06:14:33.403Z,99779.06
2022-09-30T06:15:38.247Z,99776.88
2022-09-30T06:16:40.487Z,99772.78
2022-09-30T06:17:42.844Z,99776.94
2022-09-30T06:18:45.267Z,99772.28
2022-09-30T06:19:47.473Z,99782.75
2022-09-30T06:20:49.728Z,99785.25
2022-09-30T06:21:52.077Z,99783.88
2022-09-30T06:22:54.756Z,99786.38
2022-09-30T06:23:57.003Z,99795.22
2022-09-30T06:25:00.156Z,99791.13
2022-09-30T06:26:04.442Z,99802.72
2022-09-30T06:27:06.727Z,99800.50
2022-09-30T06:28:08.957Z,99803.59
2022-09-30T06:29:11.419Z,99796.16
2022-09-30T06:30:14.165Z,99809.41
2022-09-30T06:31:16.408Z,99798.16
2022-09-30T06:32:18.691Z,99803.97
2022-09-30T06:33:22.029Z,99797.13
2022-09-30T06:34:24.453Z,99802.09
2022-09-30T06:35:27.835Z,99800.16
2022-09-30T06:36:30.056Z,99794.16
2022-09-30T06:37:33.165Z,99805.72
2022-09-30T06:38:40.119Z,99807.38
2022-09-30T06:39:42.413Z,99803.28
2022-09-30T06:40:49.673Z,99807.16
2022-09-30T06:41:51.897Z,99809.66
2022-09-30T06:43:01.011Z,99814.41
2022-09-30T06:44:03.399Z,99815.78
2022-09-30T06:45:06.216Z,99816.38
2022-09-30T06:46:17.327Z,99809.25
2022-09-30T06:47:25.572Z,99815.91
2022-09-30T06:48:37.518Z,99811.78
2022-09-30T06:49:49.081Z,99818.69
2022-09-30T06:51:01.524Z,99811.00
2022-09-30T06:52:04.396Z,99818.50
2022-09-30T06:53:08.484Z,99810.81
2022-09-30T06:54:11.197Z,99815.78
2022-09-30T06:55:13.793Z,99813.63
2022-09-30T06:56:18.130Z,99821.34
2022-09-30T06:57:22.728Z,99820.25
2022-09-30T06:58:25.569Z,99814.22
2022-09-30T06:59:27.973Z,99819.19
2022-09-30T07:00:30.241Z,99821.72
2022-09-30T07:01:32.451Z,99825.00
2022-09-30T07:02:35.077Z,99822.84
2022-09-30T07:03:37.322Z,99823.38
2022-09-30T07:04:39.544Z,99823.97
2022-09-30T07:05:41.712Z,99830.06
2022-09-30T07:06:44.259Z,99829.78
2022-09-30T07:07:46.984Z,99824.59
2022-09-30T07:08:49.199Z,99839.75
2022-09-30T07:09:54.429Z,99832.84
2022-09-30T07:11:01.631Z,99835.94
2022-09-30T07:12:04.903Z,99835.41
2022-09-30T07:13:07.052Z,99842.31
2022-09-30T07:14:10.340Z,99833.78
2022-09-30T07:15:14.639Z,99840.13
2022-09-30T07:16:19.212Z,99842.88
2022-09-30T07:17:23.816Z,99839.34
2022-09-30T07:18:28.874Z,99840.72
2022-09-30T07:19:34.766Z,99843.22
2022-09-30T07:20:36.946Z,99841.00
2022-09-30T07:21:39.131Z,99840.50
2022-09-30T07:22:42.295Z,99837.19
2022-09-30T07:23:48.047Z,99844.38
2022-09-30T07:24:50.519Z,99840.53
2022-09-30T07:25:59.070Z,99849.09
2022-09-30T07:27:01.312Z,99848.56
2022-09-30T07:28:03.543Z,99848.00
2022-09-30T07:29:07.320Z,99848.31
2022-09-30T07:30:16.132Z,99850.53
2022-09-30T07:31:32.839Z,99854.44
2022-09-30T07:32:36.907Z,99844.25
2022-09-30T07:33:40.143Z,99850.63
2022-09-30T07:34:44.358Z,99845.97
2022-09-30T07:35:53.720Z,99852.06
2022-09-30T07:36:55.897Z,99854.84
2022-09-30T07:37:58.653Z,99853.78
2022-09-30T07:39:06.366Z,99862.91
2022-09-30T07:40:10.002Z,99854.41
2022-09-30T07:41:16.207Z,99850.84
2022-09-30T07:42:22.725Z,99850.56
2022-09-30T07:43:34.904Z,99845.66
2022-09-30T07:44:42.172Z,99849.81
2022-09-30T07:45:44.424Z,99852.31
2022-09-30T07:46:46.741Z,99854.22
2022-09-30T07:47:53.444Z,99848.19
2022-09-30T07:49:00.691Z,99855.13
2022-09-30T07:50:03.567Z,99854.28
2022-09-30T07:51:07.018Z,99849.56
2022-09-30T07:52:11.445Z,99858.44
2022-09-30T07:53:13.705Z,99854.56
2022-09-30T07:54:20.016Z,99859.84
2022-09-30T07:55:22.218Z,99865.91
2022-09-30T07:56:25.438Z,99862.59
2022-09-30T07:57:30.192Z,99865.38
2022-09-30T07:58:33.200Z,99869.78
2022-09-30T07:59:38.740Z,99864.22
2022-09-30T08:00:43.778Z,99867.84
2022-09-30T08:01:47.447Z,99869.75
2022-09-30T08:02:49.646Z,99869.78
2022-09-30T08:03:57.170Z,99869.78
2022-09-30T08:04:59.757Z,99868.66
2022-09-30T08:06:07.798Z,99874.47
2022-09-30T08:07:10.325Z,99868.94
2022-09-30T08:08:13.471Z,99872.50
2022-09-30T08:09:18.643Z,99867.25
2022-09-30T08:11:43.177Z,99878.31
2022-09-30T08:12:45.405Z,99876.06
2022-09-30T08:13:55.824Z,99876.34
2022-09-30T08:14:59.223Z,99879.91
2022-09-30T08:16:01.745Z,99877.13
2022-09-30T08:17:04.330Z,99872.97
2022-09-30T08:18:06.790Z,99889.56
2022-09-30T08:19:16.017Z,99884.28
2022-09-30T08:20:22.341Z,99876.25
2022-09-30T08:21:27.645Z,99877.03
2022-09-30T08:22:30.710Z,99875.38
2022-09-30T08:23:35.907Z,99881.72
2022-09-30T08:24:38.174Z,99886.41
2022-09-30T08:25:40.361Z,99877.25
2022-09-30T08:26:43.060Z,99879.44
2022-09-30T08:27:45.280Z,99883.84
2022-09-30T08:28:48.313Z,99885.47
2022-09-30T08:29:55.127Z,99889.91
2022-09-30T08:31:04.773Z,99891.53
2022-09-30T08:32:07.210Z,99898.69
2022-09-30T08:33:09.441Z,99885.63
2022-09-30T08:34:11.665Z,99888.91
2022-09-30T08:35:14.015Z,99889.16
2022-09-30T08:36:18.928Z,99884.94
2022-09-30T08:37:21.169Z,99887.06
2022-09-30T08:38:23.375Z,99883.13
2022-09-30T08:39:25.537Z,99880.53
2022-09-30T08:40:31.691Z,99886.81
2022-09-30T08:41:36.886Z,99888.38
2022-09-30T08:42:51.846Z,99892.41
2022-09-30T08:44:18.007Z,99895.66
2022-09-30T08:45:36.018Z,99891.56
2022-09-30T08:46:56.161Z,99890.03
2022-09-30T08:48:18.569Z,99897.38
2022-09-30T08:49:39.505Z,99887.19
2022-09-30T08:51:07.130Z,99893.59
2022-09-30T08:52:24.638Z,99892.31
2022-09-30T08:53:42.640Z,99880.50
2022-09-30T08:54:50.367Z,99888.69
2022-09-30T08:55:57.197Z,99885.75
2022-09-30T08:57:02.116Z,99890.31
2022-09-30T08:58:06.275Z,99884.88
2022-09-30T08:59:40.727Z,99884.41
2022-09-30T09:00:43.089Z,99879.47
2022-09-30T09:01:52.232Z,99891.28
2022-09-30T09:02:59.960Z,99888.84
2022-09-30T09:04:04.791Z,99884.22
2022-09-30T09:05:10.849Z,99884.34
2022-09-30T09:06:29.784Z,99887.44
2022-09-30T09:07:48.335Z,99884.66
2022-09-30T09:09:07.601Z,99889.72
2022-09-30T09:10:38.152Z,99889.38
2022-09-30T09:12:01.499Z,99889.69
2022-09-30T09:13:19.876Z,99895.56
2022-09-30T09:14:53.254Z,99899.47
2022-09-30T09:16:13.619Z,99891.38
2022-09-30T09:17:40.704Z,99901.34
2022-09-30T09:18:57.017Z,99906.69
2022-09-30T09:20:04.105Z,99908.06
2022-09-30T09:21:31.963Z,99911.78
2022-09-30T09:22:35.561Z,99913.16
2022-09-30T09:23:38.561Z,99907.97
2022-09-30T09:24:51.035Z,99907.19
2022-09-30T09:25:55.909Z,99912.00
2022-09-30T09:26:59.197Z,99902.03
2022-09-30T09:28:06.358Z,99908.00
2022-09-30T09:29:23.496Z,99915.25
2022-09-30T09:30:35.458Z,99910.38
2022-09-30T09:31:38.487Z,99919.09
2022-09-30T09:32:42.477Z,99911.41
2022-09-30T09:33:44.752Z,99917.66
2022-09-30T09:34:52.923Z,99908.81
2022-09-30T09:35:57.821Z,99912.59
2022-09-30T09:37:47.858Z,99913.81
2022-09-30T09:39:00.320Z,99910.22
2022-09-30T09:40:35.003Z,99903.00
2022-09-30T09:41:46.649Z,99904.16
2022-09-30T09:42:59.389Z,99898.41
2022-09-30T09:44:30.608Z,99895.16
2022-09-30T09:45:55.753Z,99901.06
2022-09-30T09:47:17.207Z,99897.44
2022-09-30T09:48:19.407Z,99898.94
2022-09-30T09:49:24.205Z,99897.63
2022-09-30T09:50:40.824Z,99899.59
2022-09-30T09:51:49.123Z,99901.91
2022-09-30T09:52:59.821Z,99898.31
2022-09-30T09:54:02.618Z,99895.47
2022-09-30T09:55:05.112Z,99899.75
2022-09-30T09:56:19.367Z,99897.63
2022-09-30T09:57:26.465Z,99894.66
2022-09-30T09:58:28.964Z,99896.59
2022-09-30T09:59:31.485Z,99896.09
2022-09-30T10:00:45.971Z,99901.19
2022-09-30T10:01:51.481Z,99897.50
2022-09-30T10:03:06.220Z,99897.84
2022-09-30T10:04:15.036Z,99890.94
2022-09-30T10:05:26.555Z,99898.81
2022-09-30T10:06:46.083Z,99881.47
2022-09-30T10:07:48.314Z,99886.06
2022-09-30T10:08:55.666Z,99890.31
2022-09-30T10:10:23.492Z,99881.38
2022-09-30T10:11:27.566Z,99877.56
2022-09-30T10:12:30.882Z,99871.25
2022-09-30T10:13:42.942Z,99870.25
2022-09-30T10:14:58.145Z,99874.88
2022-09-30T10:16:02.068Z,99871.03
2022-09-30T10:17:17.789Z,99876.94
2022-09-30T10:18:33.507Z,99880.34
2022-09-30T10:19:35.855Z,99881.66
2022-09-30T10:20:38.136Z,99880.59
2022-09-30T10:21:40.367Z,99877.97
2022-09-30T10:22:42.918Z,99880.94
2022-09-30T10:23:45.357Z,99870.19
2022-09-30T10:24:48.442Z,99872.31
2022-09-30T10:25:59.615Z,99873.63
2022-09-30T10:27:02.394Z,99878.06
2022-09-30T10:28:26.179Z,99880.69
2022-09-30T10:29:34.078Z,99881.13
2022-09-30T10:30:43.259Z,99874.84
2022-09-30T10:31:46.490Z,99872.03
2022-09-30T10:32:48.951Z,99875.31
2022-09-30T10:34:00.017Z,99884.09
2022-09-30T10:35:24.292Z,99878.47
2022-09-30T10:36:36.485Z,99879.63
2022-09-30T10:37:38.743Z,99885.59
2022-09-30T10:38:55.241Z,99879.47
2022-09-30T10:40:06.733Z,99889.44
2022-09-30T10:41:09.502Z,99887.78
2022-09-30T10:42:26.338Z,99891.75
2022-09-30T10:43:38.531Z,99883.69
2022-09-30T10:45:04.480Z,99888.47
2022-09-30T10:47:36.422Z,99888.66
2022-09-30T10:48:41.358Z,99888.66
2022-09-30T10:49:55.539Z,99887.84
2022-09-30T10:50:57.805Z,99888.19
2022-09-30T10:52:01.260Z,99889.34
2022-09-30T10:53:11.598Z,99891.66
2022-09-30T10:54:46.812Z,99890.03
2022-09-30T10:55:49.147Z,99892.84
2022-09-30T10:56:52.646Z,99887.56
2022-09-30T10:57:57.143Z,99893.50
2022-09-30T10:59:02.052Z,99892.69
2022-09-30T11:00:12.360Z,99891.03
2022-09-30T11:01:23.117Z,99884.59
2022-09-30T11:02:38.118Z,99888.56
2022-09-30T11:03:58.262Z,99891.38
2022-09-30T11:05:13.521Z,99894.53
2022-09-30T11:06:15.729Z,99893.69
2022-09-30T11:07:44.802Z,99899.28
2022-09-30T11:09:01.757Z,99888.06
2022-09-30T11:10:12.968Z,99891.22
2022-09-30T11:11:21.028Z,99892.06
2022-09-30T11:12:32.653Z,99894.03
2022-09-30T11:13:48.872Z,99884.81
2022-09-30T11:15:04.812Z,99891.56
2022-09-30T11:16:09.772Z,99898.00
2022-09-30T11:17:22.449Z,99892.72
2022-09-30T11:18:38.111Z,99887.13
2022-09-30T11:19:49.636Z,99883.50
2022-09-30T11:20:57.693Z,99883.84
2022-09-30T11:22:38.516Z,99882.19
2022-09-30T11:23:47.833Z,99885.00
2022-09-30T11:24:53.511Z,99884.50
2022-09-30T11:26:16.690Z,99876.78
2022-09-30T11:27:38.276Z,99885.19
2022-09-30T11:28:57.382Z,99881.91
2022-09-30T11:30:10.666Z,99882.59
2022-09-30T11:31:22.028Z,99879.28
2022-09-30T11:32:33.294Z,99884.44
2022-09-30T11:34:17.224Z,99885.09
2022-09-30T11:35:42.230Z,99875.72
2022-09-30T11:37:16.653Z,99876.75
2022-09-30T11:38:47.101Z,99880.56
2022-09-30T11:40:05.591Z,99880.75
2022-09-30T11:41:16.065Z,99877.66
2022-09-30T11:42:49.256Z,99874.22
2022-09-30T11:44:10.339Z,99872.75
2022-09-30T11:45:28.195Z,99869.66
2022-09-30T11:46:33.320Z,99874.59
2022-09-30T11:48:06.600Z,99867.88
2022-09-30T11:49:19.710Z,99878.28
2022-09-30T11:50:50.200Z,99877.16
2022-09-30T11:52:07.542Z,99870.41
2022-09-30T11:53:31.155Z,99870.94
2022-09-30T11:54:39.303Z,99870.09
2022-09-30T11:55:50.267Z,99871.75
2022-09-30T11:57:00.249Z,99875.06
2022-09-30T11:58:39.407Z,99870.31
2022-09-30T11:59:41.889Z,99870.63
2022-09-30T12:00:49.437Z,99883.13
2022-09-30T12:01:54.895Z,99881.66
2022-09-30T12:03:10.019Z,99879.03
2022-09-30T12:04:32.035Z,99877.53
2022-09-30T12:05:45.972Z,99873.25
2022-09-30T12:06:55.231Z,99875.88
2022-09-30T12:08:18.589Z,99876.88
2022-09-30T12:09:32.615Z,99875.03
2022-09-30T12:10:43.446Z,99871.25
2022-09-30T12:11:57.940Z,99873.88
2022-09-30T12:13:12.449Z,99874.53
2022-09-30T12:14:23.287Z,99871.91
2022-09-30T12:15:27.517Z,99876.16
2022-09-30T12:16:34.553Z,99866.47
2022-09-30T12:17:55.728Z,99874.34
2022-09-30T12:19:05.239Z,99873.84
2022-09-30T12:20:18.272Z,99872.19
2022-09-30T12:21:26.593Z,99874.53
2022-09-30T12:22:36.823Z,99866.72
2022-09-30T12:23:51.263Z,99874.31
2022-09-30T12:24:53.480Z,99868.19
2022-09-30T12:26:01.217Z,99869.34
2022-09-30T12:27:35.423Z,99869.66
2022-09-30T12:29:25.952Z,99864.41
2022-09-30T12:30:31.058Z,99861.94
2022-09-30T12:32:10.001Z,99865.88
2022-09-30T12:33:12.316Z,99866.53
2022-09-30T12:34:51.033Z,99857.13
2022-09-30T12:35:53.306Z,99863.06
2022-09-30T12:37:22.966Z,99860.59
2022-09-30T12:38:55.756Z,99862.38
2022-09-30T12:40:22.869Z,99863.06
2022-09-30T12:42:12.253Z,99857.28
2022-09-30T12:43:38.832Z,99857.59
2022-09-30T12:45:09.976Z,99860.69
2022-09-30T12:46:27.382Z,99863.34
2022-09-30T12:47:47.469Z,99856.09
2022-09-30T12:48:55.755Z,99860.84
2022-09-30T12:49:59.833Z,99859.53
2022-09-30T12:51:02.476Z,99863.47
2022-09-30T12:52:13.778Z,99861.81
2022-09-30T12:53:22.344Z,99863.81
2022-09-30T12:54:31.901Z,99860.16
2022-09-30T12:55:42.446Z,99856.56
2022-09-30T12:56:49.751Z,99859.03
2022-09-30T12:57:53.221Z,99861.00
2022-09-30T12:58:57.699Z,99857.06
2022-09-30T13:00:19.204Z,99857.06
2022-09-30T13:01:31.828Z,99848.38
2022-09-30T13:02:38.578Z,99848.38
2022-09-30T13:04:04.176Z,99848.84
2022-09-30T13:05:27.858Z,99852.16
2022-09-30T13:06:45.530Z,99844.59
2022-09-30T13:08:07.807Z,99844.59
2022-09-30T13:09:19.104Z,99832.59
2022-09-30T13:10:28.895Z,99836.22
2022-09-30T13:11:48.476Z,99840.13
2022-09-30T13:13:19.554Z,99834.88
2022-09-30T13:14:33.461Z,99842.44
2022-09-30T13:15:36.977Z,99843.59
2022-09-30T13:17:18.098Z,99848.38
2022-09-30T13:18:20.257Z,99841.47
2022-09-30T13:19:34.236Z,99845.88
2022-09-30T13:20:57.169Z,99841.75
2022-09-30T13:22:24.220Z,99843.75
2022-09-30T13:23:39.552Z,99854.91
2022-09-30T13:25:11.558Z,99845.22
2022-09-30T13:26:24.376Z,99850.78
2022-09-30T13:27:44.772Z,99852.78
2022-09-30T13:28:47.030Z,99844.69
2022-09-30T13:29:49.821Z,99857.03
2022-09-30T13:31:13.503Z,99854.25
2022-09-30T13:32:33.454Z,99861.78
2022-09-30T13:33:44.887Z,99860.63
2022-09-30T13:34:55.765Z,99859.31
2022-09-30T13:36:06.936Z,99860.97
2022-09-30T13:37:35.148Z,99864.09
2022-09-30T13:38:40.565Z,99856.00
2022-09-30T13:39:56.874Z,99856.84
2022-09-30T13:41:19.366Z,99867.19